Time;durP1;ratioP1;P1;durP2;ratioP2;P2;SDS_P1;SDS_P2;PMS_P1;PMS_P2;Temp;Humidity;BMP_temperature;BMP_pressure;BME280_temperature;BME280_humidity;BME280_pressure;Samples;Min_cycle;Max_cycle;Signal;HPM_P1;HPM_P2
2022/03/27 00:01:23;;;;;;;17.07;15.00;;;;;;;9.48;50.13;99811.69;4981528;28;102622;-60
2022/03/27 00:03:55;;;;;;;21.97;17.17;;;;;;;8.81;51.84;99811.50;4981537;28;102969;-61
2022/03/27 00:06:23;;;;;;;30.90;19.00;;;;;;;8.34;52.18;99817.19;4980481;28;103226;-60
2022/03/27 00:08:51;;;;;;;15.93;13.90;;;;;;;8.69;51.90;99819.06;4980558;28;103207;-60
2022/03/27 00:11:24;;;;;;;13.43;11.70;;;;;;;9.25;50.30;99813.69;4978783;28;102691;-61
2022/03/27 00:13:53;;;;;;;13.68;11.98;;;;;;;9.45;50.41;99815.31;4981113;28;103848;-61
2022/03/27 00:16:22;;;;;;;19.48;15.23;;;;;;;9.40;50.17;99806.78;4977062;28;103031;-61
2022/03/27 00:18:52;;;;;;;15.32;13.73;;;;;;;9.40;50.32;99804.16;4977414;28;103273;-60
2022/03/27 00:21:22;;;;;;;20.00;16.23;;;;;;;9.29;50.49;99814.38;4982811;28;102661;-61
2022/03/27 00:23:52;;;;;;;18.25;15.88;;;;;;;9.25;50.62;99797.84;4962548;28;103041;-61
2022/03/27 00:26:21;;;;;;;17.60;14.87;;;;;;;9.13;51.24;99808.13;4963263;28;104301;-60
2022/03/27 00:28:49;;;;;;;17.17;13.82;;;;;;;9.29;50.73;99806.47;4962286;28;104287;-61
2022/03/27 00:31:18;;;;;;;20.00;16.45;;;;;;;8.94;51.24;99802.91;4982718;28;102842;-61
2022/03/27 00:33:48;;;;;;;19.10;14.80;;;;;;;9.02;51.10;99811.31;4982087;28;104346;-60
2022/03/27 00:36:16;;;;;;;16.40;14.00;;;;;;;9.19;50.56;99807.84;4981135;28;103905;-59
2022/03/27 00:38:46;;;;;;;18.63;14.43;;;;;;;9.26;50.74;99801.34;4980339;28;103555;-61
2022/03/27 00:41:15;;;;;;;16.33;14.13;;;;;;;9.23;50.55;99798.88;4963376;28;102924;-61
2022/03/27 00:43:43;;;;;;;17.83;14.23;;;;;;;9.20;50.95;99805.16;4981159;28;103039;-61
2022/03/27 00:46:12;;;;;;;19.60;15.10;;;;;;;9.00;51.35;99802.63;4981303;28;104002;-60
2022/03/27 00:48:41;;;;;;;26.15;17.73;;;;;;;8.67;51.84;99798.97;4976217;28;104146;-61
2022/03/27 00:51:09;;;;;;;19.08;16.20;;;;;;;8.46;52.75;99803.47;4976147;28;102896;-61
2022/03/27 00:53:37;;;;;;;25.38;20.48;;;;;;;7.74;54.40;99804.97;4982422;28;103937;-61
2022/03/27 00:56:06;;;;;;;22.15;17.85;;;;;;;8.15;53.39;99811.00;4962425;28;104285;-61
2022/03/27 00:58:34;;;;;;;21.70;16.10;;;;;;;8.56;52.38;99810.00;4962969;28;103895;-61
2022/03/27 01:01:15;;;;;;;15.88;13.15;;;;;;;8.78;51.80;99793.19;4977885;28;103857;-61
2022/03/27 01:03:44;;;;;;;23.45;18.95;;;;;;;8.02;53.43;99805.47;4981383;28;103544;-61
2022/03/27 01:06:25;;;;;;;18.50;15.23;;;;;;;8.42;52.58;99807.13;4978166;28;104020;-61
2022/03/27 01:11:40;;;;;;;16.33;13.80;;;;;;;8.55;52.48;99807.44;4978028;28;102681;-61
2022/03/27 01:14:08;;;;;;;27.42;18.95;;;;;;;7.74;53.35;99807.59;4978042;28;102693;-59
2022/03/27 01:16:42;;;;;;;15.25;13.40;;;;;;;7.91;54.72;99798.94;4980180;28;103256;-60
2022/03/27 01:19:14;;;;;;;19.38;16.65;;;;;;;7.71;55.38;99798.97;4979066;28;103140;-60
2022/03/27 01:21:44;;;;;;;18.55;14.63;;;;;;;8.29;53.32;99798.09;4961175;28;102893;-60
2022/03/27 01:24:14;;;;;;;19.17;15.63;;;;;;;8.07;54.21;99787.66;4961990;28;103983;-61
2022/03/27 01:26:42;;;;;;;23.92;16.85;;;;;;;8.12;53.92;99788.31;4979189;28;103810;-59
2022/03/27 01:29:10;;;;;;;20.00;17.33;;;;;;;7.66;55.46;99795.69;4978507;28;103440;-59
2022/03/27 01:31:38;;;;;;;20.80;17.00;;;;;;;7.86;54.62;99795.69;4978430;28;102688;-61
2022/03/27 01:34:07;;;;;;;14.65;13.00;;;;;;;8.14;54.21;99791.72;4980285;28;104169;-61
2022/03/27 01:36:36;;;;;;;23.63;18.08;;;;;;;7.50;55.26;99796.34;4975425;28;103786;-61
2022/03/27 01:39:08;;;;;;;23.57;18.03;;;;;;;7.19;56.88;99798.53;4978124;28;103439;-59
2022/03/27 01:41:36;;;;;;;20.15;16.42;;;;;;;7.67;55.60;99794.75;4979689;28;102621;-59
2022/03/27 01:44:06;;;;;;;28.88;21.67;;;;;;;7.02;57.00;99787.84;4980756;28;104150;-60
2022/03/27 01:46:36;;;;;;;22.58;19.60;;;;;;;7.17;57.07;99797.75;4961368;28;104166;-60
2022/03/27 01:49:07;;;;;;;20.08;16.45;;;;;;;7.62;56.25;99783.56;4978763;28;103729;-61
2022/03/27 01:51:36;;;;;;;24.40;20.02;;;;;;;7.61;55.74;99787.16;4961138;28;103640;-60
2022/03/27 01:54:06;;;;;;;30.27;21.92;;;;;;;7.46;55.74;99781.63;4980562;28;103803;-59
2022/03/27 01:56:36;;;;;;;19.73;17.02;;;;;;;7.53;55.90;99790.94;4978610;28;104023;-61
2022/03/27 01:59:05;;;;;;;25.27;19.02;;;;;;;7.57;55.31;99775.91;4960225;28;103218;-61
2022/03/27 02:01:34;;;;;;;27.97;20.10;;;;;;;7.42;55.97;99787.06;4957392;28;102658;-61
2022/03/27 02:04:03;;;;;;;20.33;17.35;;;;;;;7.62;55.67;99780.94;4980391;28;103908;-61
2022/03/27 02:06:32;;;;;;;19.42;15.57;;;;;;;7.82;55.20;99780.94;4976166;28;103396;-61
2022/03/27 02:09:00;;;;;;;19.13;16.10;;;;;;;7.78;55.16;99784.59;4960158;28;103282;-61
2022/03/27 02:11:30;;;;;;;17.75;15.77;;;;;;;7.84;54.71;99779.09;4977300;28;102722;-61
2022/03/27 02:13:58;;;;;;;24.50;19.00;;;;;;;7.53;55.55;99782.19;4957574;28;104284;-62
2022/03/27 02:16:26;;;;;;;25.77;18.50;;;;;;;7.13;57.01;99776.94;4978753;28;103229;-61
2022/03/27 02:18:54;;;;;;;21.57;15.93;;;;;;;7.33;56.90;99776.91;4960573;28;104019;-60
2022/03/27 02:21:22;;;;;;;20.77;17.80;;;;;;;7.30;56.66;99777.91;4978034;28;102882;-61
2022/03/27 02:23:51;;;;;;;25.63;19.13;;;;;;;5.99;60.75;99781.41;4978162;28;103961;-61
2022/03/27 02:26:19;;;;;;;21.08;17.75;;;;;;;6.47;60.35;99777.84;4977785;28;103309;-60
2022/03/27 02:28:48;;;;;;;14.93;13.33;;;;;;;7.16;57.68;99782.88;4976753;28;103231;-61
2022/03/27 02:31:19;;;;;;;18.80;15.27;;;;;;;7.20;57.15;99787.13;4961911;28;102737;-61
2022/03/27 02:33:50;;;;;;;18.52;16.00;;;;;;;7.24;57.42;99780.78;4979157;28;104618;-61
2022/03/27 02:36:18;;;;;;;26.23;18.73;;;;;;;5.67;62.34;99793.00;4978097;28;103725;-61
2022/03/27 02:38:46;;;;;;;25.13;18.00;;;;;;;5.43;64.41;99795.63;4961903;28;104274;-61
2022/03/27 02:41:15;;;;;;;19.20;15.88;;;;;;;6.37;60.64;99787.84;4979051;28;102652;-61
2022/03/27 02:43:44;;;;;;;14.33;12.77;;;;;;;6.95;58.14;99789.91;4961919;28;104001;-61
2022/03/27 02:46:13;;;;;;;21.37;17.37;;;;;;;6.12;61.59;99793.16;4977677;28;103457;-61
2022/03/27 02:48:41;;;;;;;14.93;13.23;;;;;;;6.75;59.55;99778.47;4976215;28;103612;-61
2022/03/27 02:51:10;;;;;;;17.33;14.63;;;;;;;6.98;58.24;99786.28;4979302;28;102904;-61
2022/03/27 02:53:38;;;;;;;21.52;16.95;;;;;;;6.95;57.81;99791.66;4978896;28;103143;-61
2022/03/27 02:56:09;;;;;;;23.50;17.67;;;;;;;6.35;59.70;99785.28;4980745;28;103869;-61
2022/03/27 02:58:37;;;;;;;15.82;14.15;;;;;;;6.79;59.29;99780.91;4978461;28;102835;-60
2022/03/27 03:01:08;;;;;;;14.17;12.73;;;;;;;7.14;57.49;99775.97;4980083;28;102756;-60
2022/03/27 03:03:37;;;;;;;21.05;16.35;;;;;;;6.88;58.50;99782.31;4961519;28;103935;-59
2022/03/27 03:06:08;;;;;;;22.73;17.80;;;;;;;6.14;61.11;99786.09;4978212;28;103288;-61
2022/03/27 03:08:37;;;;;;;20.65;16.13;;;;;;;6.49;60.27;99781.25;4959324;28;103299;-60
2022/03/27 03:11:05;;;;;;;20.58;16.20;;;;;;;6.49;60.09;99787.34;4978100;28;102561;-59
2022/03/27 03:13:34;;;;;;;18.90;15.88;;;;;;;6.68;59.12;99777.84;4977539;28;103278;-60
2022/03/27 03:16:03;;;;;;;22.70;16.33;;;;;;;6.64;58.80;99781.53;4977095;28;103211;-59
2022/03/27 03:18:35;;;;;;;20.63;16.20;;;;;;;6.36;60.31;99781.75;4978505;28;103198;-61
2022/03/27 03:21:04;;;;;;;21.67;16.25;;;;;;;6.64;59.16;99780.66;4978649;28;103873;-59
2022/03/27 03:23:33;;;;;;;15.43;13.30;;;;;;;6.78;58.66;99784.47;4981286;28;102967;-59
2022/03/27 03:26:01;;;;;;;16.85;13.98;;;;;;;6.71;59.08;99787.41;4997525;28;104108;-61
2022/03/27 03:28:35;;;;;;;16.40;14.70;;;;;;;6.82;58.37;99780.78;4996286;28;103246;-61
2022/03/27 03:31:05;;;;;;;20.02;14.73;;;;;;;6.91;57.97;99775.16;4997064;28;102607;-61
2022/03/27 03:33:34;;;;;;;20.15;16.02;;;;;;;6.57;58.96;99787.09;4997521;28;103982;-61
2022/03/27 03:36:01;;;;;;;20.15;15.80;;;;;;;6.45;59.85;99785.78;4993488;28;103273;-59
2022/03/27 03:38:31;;;;;;;18.65;14.95;;;;;;;6.50;59.75;99794.34;4995223;28;103190;-60
2022/03/27 03:40:59;;;;;;;17.47;14.97;;;;;;;6.56;59.07;99793.25;4978016;28;102980;-61
2022/03/27 03:43:30;;;;;;;21.45;17.15;;;;;;;6.16;60.24;99792.13;4993724;28;103451;-60
2022/03/27 03:45:58;;;;;;;16.98;13.70;;;;;;;6.51;59.69;99792.56;4998084;28;103728;-61
2022/03/27 03:48:26;;;;;;;17.15;14.10;;;;;;;6.64;59.13;99791.16;4998683;28;103326;-61
2022/03/27 03:50:55;;;;;;;22.38;16.55;;;;;;;6.03;60.84;99804.00;4998690;28;102611;-61
2022/03/27 03:53:24;;;;;;;20.45;16.77;;;;;;;5.55;63.09;99800.47;5000360;28;103733;-61
2022/03/27 03:55:53;;;;;;;17.98;15.43;;;;;;;6.12;61.40;99801.00;4984254;28;104064;-61
2022/03/27 03:58:21;;;;;;;21.77;15.90;;;;;;;6.15;60.38;99797.41;5001917;28;103218;-60
2022/03/27 04:00:50;;;;;;;12.80;11.40;;;;;;;6.47;59.37;99786.56;5000211;28;102561;-60
2022/03/27 04:03:19;;;;;;;19.30;15.20;;;;;;;6.40;58.92;99792.97;5002259;28;102663;-60
2022/03/27 04:05:47;;;;;;;18.42;14.93;;;;;;;6.43;59.15;99794.63;4998441;28;104185;-60
2022/03/27 04:08:15;;;;;;;20.35;15.18;;;;;;;6.19;60.40;99793.78;5000669;28;103206;-59
2022/03/27 04:10:43;;;;;;;20.40;15.93;;;;;;;5.76;60.91;99799.69;5000850;28;102678;-61
2022/03/27 04:13:13;;;;;;;18.25;14.13;;;;;;;5.81;62.44;99797.78;5001391;28;102718;-61
2022/03/27 04:15:41;;;;;;;17.63;15.00;;;;;;;6.05;60.78;99791.66;4999705;28;103271;-60
2022/03/27 04:18:22;;;;;;;16.73;14.90;;;;;;;6.18;60.13;99785.03;5000431;28;103243;-61
2022/03/27 04:20:51;;;;;;;20.92;15.80;;;;;;;6.05;60.64;99793.44;5001611;28;102834;-60
2022/03/27 04:23:20;;;;;;;16.92;14.23;;;;;;;6.22;59.83;99776.16;5001969;28;102624;-60
2022/03/27 04:25:48;;;;;;;15.38;12.90;;;;;;;6.29;59.70;99788.13;4981466;28;104858;-60
2022/03/27 04:28:17;;;;;;;13.88;12.38;;;;;;;6.34;59.10;99778.28;5000607;28;103213;-60
2022/03/27 04:30:45;;;;;;;23.33;17.40;;;;;;;5.36;62.62;99794.16;4998859;28;102814;-60
2022/03/27 04:33:14;;;;;;;19.30;15.65;;;;;;;5.66;63.13;99793.06;4983379;28;102717;-61
2022/03/27 04:35:42;;;;;;;18.40;15.35;;;;;;;5.74;62.57;99799.75;4998818;28;104578;-61
2022/03/27 04:38:10;;;;;;;15.60;13.90;;;;;;;6.04;61.23;99799.59;5000376;28;103240;-60
2022/03/27 04:40:38;;;;;;;13.38;11.43;;;;;;;6.24;60.02;99792.69;4981604;28;102702;-60
2022/03/27 04:43:07;;;;;;;16.35;14.15;;;;;;;6.27;59.81;99789.09;5000169;28;103976;-61
2022/03/27 04:45:36;;;;;;;19.42;15.27;;;;;;;6.14;60.36;99799.22;4999120;28;104243;-61
2022/03/27 04:48:05;;;;;;;17.40;14.48;;;;;;;6.18;60.31;99792.91;4999496;28;103242;-61
2022/03/27 04:50:33;;;;;;;18.80;14.80;;;;;;;6.18;59.76;99803.41;4999582;28;102656;-61
2022/03/27 04:53:01;;;;;;;21.67;16.05;;;;;;;5.88;61.08;99799.31;4981414;28;102739;-61
2022/03/27 04:55:29;;;;;;;17.10;14.32;;;;;;;5.80;62.00;99803.94;4999721;28;103711;-61
2022/03/27 04:57:58;;;;;;;19.88;15.80;;;;;;;5.12;64.03;99807.16;4982687;28;105765;-61
2022/03/27 05:00:26;;;;;;;21.27;16.57;;;;;;;4.93;65.78;99802.56;4999351;28;102787;-61
2022/03/27 05:02:58;;;;;;;19.90;16.20;;;;;;;5.20;64.23;99813.00;4977576;28;104056;-61
2022/03/27 05:05:27;;;;;;;20.23;16.38;;;;;;;5.38;64.11;99810.66;5000823;28;104388;-61
2022/03/27 05:07:56;;;;;;;17.55;14.65;;;;;;;5.70;62.37;99819.13;5001746;28;103329;-60
2022/03/27 05:10:24;;;;;;;14.13;12.38;;;;;;;5.90;61.22;99813.19;5000733;28;102840;-60
2022/03/27 05:12:54;;;;;;;21.45;15.55;;;;;;;5.57;62.79;99809.97;4999694;28;104397;-61
2022/03/27 05:15:22;;;;;;;17.23;14.07;;;;;;;5.77;61.94;99812.78;4995175;28;103726;-61
2022/03/27 05:17:53;;;;;;;16.92;13.82;;;;;;;5.65;62.93;99812.31;5001760;28;104094;-60
2022/03/27 05:20:23;;;;;;;14.37;12.10;;;;;;;5.92;61.11;99805.28;4999500;28;103002;-61
2022/03/27 05:22:51;;;;;;;18.23;15.13;;;;;;;5.84;60.99;99808.13;5001586;28;104366;-60
2022/03/27 05:25:20;;;;;;;20.37;16.30;;;;;;;5.31;63.27;99814.38;5000508;28;103315;-60
2022/03/27 05:27:50;;;;;;;20.13;16.27;;;;;;;5.09;63.65;99806.38;5000978;28;103281;-61
2022/03/27 05:30:21;;;;;;;22.08;17.08;;;;;;;4.40;67.32;99809.47;5001254;28;102617;-59
2022/03/27 05:32:53;;;;;;;21.45;16.80;;;;;;;4.68;67.61;99815.56;5001194;28;102687;-61
2022/03/27 05:35:23;;;;;;;18.40;15.10;;;;;;;5.24;65.21;99805.88;5001156;28;103593;-60
2022/03/27 05:37:54;;;;;;;16.30;14.40;;;;;;;5.64;63.01;99813.25;5001312;28;103294;-60
2022/03/27 05:40:24;;;;;;;16.67;14.57;;;;;;;5.71;62.16;99818.22;4996124;28;103007;-60
2022/03/27 05:42:53;;;;;;;14.93;13.10;;;;;;;5.90;62.01;99818.44;4981702;28;104268;-60
2022/03/27 05:45:23;;;;;;;14.50;12.18;;;;;;;6.11;60.96;99822.94;4982886;28;105371;-60
2022/03/27 05:47:51;;;;;;;17.60;14.30;;;;;;;6.17;60.97;99827.97;4983085;28;104175;-60
2022/03/27 05:50:22;;;;;;;14.95;12.85;;;;;;;6.26;60.89;99830.22;4997550;28;102729;-61
2022/03/27 05:52:53;;;;;;;12.73;11.25;;;;;;;6.41;59.99;99837.53;5000772;28;103272;-60
2022/03/27 05:55:22;;;;;;;17.17;13.35;;;;;;;6.38;60.72;99829.78;4978936;28;104220;-60
2022/03/27 05:57:51;;;;;;;20.90;15.83;;;;;;;6.11;62.15;99837.81;4999965;28;103252;-61
2022/03/27 06:00:20;;;;;;;19.65;15.60;;;;;;;5.77;63.05;99838.13;4997700;28;103868;-61
2022/03/27 06:02:50;;;;;;;18.23;14.73;;;;;;;6.14;62.63;99838.56;4981912;28;102849;-61
2022/03/27 06:05:23;;;;;;;20.38;15.57;;;;;;;6.30;61.63;99838.84;4981002;28;103323;-60
2022/03/27 06:07:54;;;;;;;18.13;14.23;;;;;;;6.45;61.61;99830.41;4999278;28;103244;-61
2022/03/27 06:10:24;;;;;;;15.03;13.03;;;;;;;6.66;60.83;99831.34;4997508;28;102676;-61
2022/03/27 06:12:54;;;;;;;16.73;14.07;;;;;;;6.79;60.75;99832.59;5000065;28;103422;-60
2022/03/27 06:15:23;;;;;;;17.37;14.90;;;;;;;6.82;61.50;99830.69;4999726;28;104128;-61
2022/03/27 06:17:53;;;;;;;15.63;13.98;;;;;;;6.97;61.07;99834.47;4996657;28;103248;-61
2022/03/27 06:20:23;;;;;;;16.80;14.68;;;;;;;7.08;60.06;99829.66;4978340;28;102977;-60
2022/03/27 06:22:53;;;;;;;15.77;13.43;;;;;;;7.25;58.81;99827.19;4999956;28;103590;-61
2022/03/27 06:25:24;;;;;;;20.80;15.80;;;;;;;7.19;59.81;99834.47;4999057;28;104036;-60
2022/03/27 06:27:52;;;;;;;21.80;15.45;;;;;;;7.27;59.42;99835.88;4997564;28;104498;-60
2022/03/27 06:30:22;;;;;;;19.40;15.68;;;;;;;7.36;59.09;99835.50;4978067;28;102762;-61
2022/03/27 06:32:57;;;;;;;20.15;16.65;;;;;;;7.36;59.17;99846.00;5000540;28;103690;-60
2022/03/27 06:35:26;;;;;;;19.27;15.30;;;;;;;7.51;59.07;99834.88;4997781;28;104596;-61
2022/03/27 06:37:56;;;;;;;15.73;14.02;;;;;;;7.75;58.71;99843.47;4998891;28;103735;-60
2022/03/27 06:40:24;;;;;;;17.23;13.82;;;;;;;7.94;57.96;99833.03;4999439;28;102634;-60
2022/03/27 06:42:52;;;;;;;14.10;12.70;;;;;;;8.06;58.20;99843.84;4997319;28;104339;-61
2022/03/27 06:45:26;;;;;;;15.02;12.32;;;;;;;8.24;57.21;99836.94;4981388;28;104811;-60
2022/03/27 06:47:55;;;;;;;15.45;12.88;;;;;;;8.41;57.16;99829.16;4999728;28;103214;-61
2022/03/27 06:50:24;;;;;;;17.05;13.88;;;;;;;8.53;56.82;99831.19;4999532;28;102673;-61
2022/03/27 06:52:56;;;;;;;18.27;16.17;;;;;;;8.48;57.37;99830.56;4999835;28;102989;-61
2022/03/27 06:55:27;;;;;;;16.05;14.13;;;;;;;8.65;57.23;99828.00;4997679;28;103106;-60
2022/03/27 06:57:55;;;;;;;17.95;15.85;;;;;;;8.73;57.08;99830.28;4998932;28;103530;-60
2022/03/27 07:03:10;;;;;;;21.30;16.13;;;;;;;8.88;55.58;99828.69;5000110;28;102656;-60
2022/03/27 07:05:41;;;;;;;16.67;14.35;;;;;;;9.17;55.25;99829.03;4999189;28;104205;-61
2022/03/27 07:08:12;;;;;;;19.48;16.05;;;;;;;9.17;55.02;99831.66;4993505;28;103225;-60
2022/03/27 07:10:44;;;;;;;15.25;13.63;;;;;;;9.50;54.79;99839.69;4997654;28;103091;-60
2022/03/27 07:13:14;;;;;;;16.65;14.77;;;;;;;9.69;54.10;99829.91;4995916;28;102975;-60
2022/03/27 07:15:44;;;;;;;15.75;14.13;;;;;;;9.87;54.36;99839.53;4997710;28;103246;-60
2022/03/27 07:18:13;;;;;;;21.30;17.52;;;;;;;9.68;54.48;99833.50;4995536;28;103058;-61
2022/03/27 07:20:44;;;;;;;21.58;17.42;;;;;;;9.65;55.15;99840.69;4994592;28;102667;-61
2022/03/27 07:23:19;;;;;;;20.13;17.33;;;;;;;9.72;55.40;99837.66;5000330;28;103714;-61
2022/03/27 07:25:51;;;;;;;20.10;17.00;;;;;;;10.21;54.22;99843.09;4997586;28;103446;-60
2022/03/27 07:28:19;;;;;;;22.17;17.15;;;;;;;10.45;53.74;99834.69;4997929;28;103209;-61
2022/03/27 07:30:48;;;;;;;20.45;17.17;;;;;;;9.85;54.88;99845.81;5000085;28;102727;-60
2022/03/27 07:33:17;;;;;;;21.47;17.63;;;;;;;10.55;53.35;99848.28;4999256;28;103944;-61
2022/03/27 07:35:46;;;;;;;22.08;17.00;;;;;;;11.02;52.06;99843.00;4982131;28;103278;-61
2022/03/27 07:38:15;;;;;;;17.42;15.63;;;;;;;11.34;52.02;99854.41;4997727;28;102994;-60
2022/03/27 07:40:45;;;;;;;22.13;16.90;;;;;;;11.74;51.38;99847.66;4999815;28;102681;-60
2022/03/27 07:43:13;;;;;;;23.27;18.67;;;;;;;10.32;54.36;99852.16;5000305;28;103955;-60
2022/03/27 07:45:42;;;;;;;20.00;17.20;;;;;;;11.43;52.76;99854.72;4997847;28;103337;-60
2022/03/27 07:48:10;;;;;;;23.92;18.98;;;;;;;11.32;51.76;99854.50;4999607;28;103207;-61
2022/03/27 07:50:38;;;;;;;25.13;18.30;;;;;;;11.25;53.09;99854.94;5000116;28;102647;-61
2022/03/27 07:53:07;;;;;;;21.90;17.40;;;;;;;11.92;52.74;99847.44;4987698;28;104384;-60
2022/03/27 07:55:38;;;;;;;23.27;18.70;;;;;;;11.36;52.74;99857.81;4973212;28;104120;-60
2022/03/27 07:58:08;;;;;;;24.42;17.92;;;;;;;11.74;53.11;99852.97;4973709;28;104007;-60
2022/03/27 08:00:36;;;;;;;20.77;17.08;;;;;;;12.93;51.78;99845.53;4977408;28;102895;-61
2022/03/27 08:03:04;;;;;;;18.38;16.25;;;;;;;13.72;48.39;99841.22;4995723;28;103044;-62
2022/03/27 08:05:32;;;;;;;18.38;16.42;;;;;;;13.85;48.07;99843.88;4973780;28;104126;-60
2022/03/27 08:08:01;;;;;;;20.07;16.80;;;;;;;12.74;49.03;99845.00;4994193;28;103219;-60
2022/03/27 08:10:29;;;;;;;21.95;16.52;;;;;;;13.44;47.61;99837.84;4992210;28;102993;-60
2022/03/27 08:12:59;;;;;;;20.13;16.00;;;;;;;14.48;46.76;99844.75;4993830;28;103889;-62
2022/03/27 08:15:29;;;;;;;21.48;16.98;;;;;;;13.80;46.64;99840.69;4963593;28;103302;-61
2022/03/27 08:17:57;;;;;;;21.03;16.63;;;;;;;13.28;46.56;99838.81;4978229;28;103440;-62
2022/03/27 08:20:29;;;;;;;17.45;15.10;;;;;;;14.05;46.63;99846.03;4978054;28;102695;-62
2022/03/27 08:22:58;;;;;;;17.73;15.15;;;;;;;14.72;45.74;99847.50;4977372;28;103818;-62
2022/03/27 08:28:14;;;;;;;16.65;14.98;;;;;;;16.39;42.85;99829.63;4980114;28;103364;-60
2022/03/27 08:30:44;;;;;;;17.38;15.40;;;;;;;16.40;43.48;99836.63;4977437;28;102627;-60
2022/03/27 08:33:12;;;;;;;18.83;15.40;;;;;;;16.67;42.52;99830.00;4979263;28;104089;-60
2022/03/27 08:35:42;;;;;;;20.13;16.17;;;;;;;16.78;43.46;99832.69;4978580;28;104238;-60
2022/03/27 08:38:11;;;;;;;18.52;15.30;;;;;;;17.09;42.62;99830.19;4981956;28;102832;-60
2022/03/27 08:40:39;;;;;;;21.23;16.17;;;;;;;17.09;41.39;99833.72;4979466;28;102923;-63
2022/03/27 08:43:10;;;;;;;18.20;16.15;;;;;;;17.00;44.68;99826.47;4978680;28;103863;-60
2022/03/27 08:45:38;;;;;;;19.73;15.70;;;;;;;17.32;42.40;99837.16;4978691;28;104444;-63
2022/03/27 08:48:09;;;;;;;20.00;15.65;;;;;;;15.57;43.85;99836.81;4979327;28;105349;-63
2022/03/27 08:50:43;;;;;;;17.98;15.82;;;;;;;15.88;43.12;99826.50;4979753;28;102616;-63
2022/03/27 08:53:12;;;;;;;17.70;15.60;;;;;;;17.48;42.99;99826.94;4980482;28;103983;-63
2022/03/27 08:55:46;;;;;;;15.77;14.10;;;;;;;17.50;42.56;99824.97;4980749;28;103375;-63
2022/03/27 08:58:15;;;;;;;18.75;15.50;;;;;;;16.71;43.09;99828.78;4979190;28;103268;-63
2022/03/27 09:00:44;;;;;;;17.20;14.90;;;;;;;16.84;43.48;99827.81;4978714;28;102956;-63
2022/03/27 09:03:14;;;;;;;16.40;14.30;;;;;;;18.05;44.63;99831.88;4975392;28;104371;-61
2022/03/27 09:05:43;;;;;;;17.23;14.03;;;;;;;17.86;41.73;99824.59;4975509;28;103273;-61
2022/03/27 09:08:12;;;;;;;15.77;14.13;;;;;;;17.63;42.31;99825.66;4975704;28;103217;-61
2022/03/27 09:10:41;;;;;;;17.08;13.25;;;;;;;18.86;42.43;99826.53;4977887;28;103867;-61
2022/03/27 09:13:12;;;;;;;16.33;13.98;;;;;;;19.28;40.19;99823.69;4975104;28;103736;-62
2022/03/27 09:15:40;;;;;;;15.70;13.80;;;;;;;19.40;41.61;99827.94;4977499;28;104133;-62
2022/03/27 09:18:10;;;;;;;15.45;13.63;;;;;;;19.03;41.11;99825.06;4974527;28;104158;-62
2022/03/27 09:20:44;;;;;;;16.65;14.45;;;;;;;19.28;41.89;99823.69;4977427;28;103047;-65
2022/03/27 09:23:19;;;;;;;17.23;14.23;;;;;;;18.88;40.92;99816.56;4977877;28;103671;-62
2022/03/27 09:25:53;;;;;;;16.20;13.85;;;;;;;19.99;39.42;99823.28;4975073;28;104069;-63
2022/03/27 09:28:32;;;;;;;15.50;13.90;;;;;;;20.04;40.58;99818.31;4975618;28;103206;-62
2022/03/27 09:31:03;;;;;;;16.87;14.57;;;;;;;20.10;40.28;99817.75;4974787;28;103023;-62
2022/03/27 09:33:48;;;;;;;17.15;14.85;;;;;;;19.30;38.26;99816.34;4977630;28;102642;-62
2022/03/27 09:36:20;;;;;;;15.27;13.60;;;;;;;19.84;39.38;99811.31;4976735;28;105034;-62
2022/03/27 09:39:13;;;;;;;19.05;14.15;;;;;;;19.05;40.73;99810.53;4974443;28;103768;-62
2022/03/27 09:41:44;;;;;;;14.23;12.82;;;;;;;20.05;37.60;99813.81;4958345;28;103052;-65
2022/03/27 09:44:15;;;;;;;16.77;13.38;;;;;;;19.11;39.63;99811.81;4972879;28;102874;-65
2022/03/27 09:46:57;;;;;;;15.02;13.43;;;;;;;20.12;37.71;99809.59;4973808;28;103376;-65
2022/03/27 09:49:38;;;;;;;15.25;13.65;;;;;;;20.56;38.39;99802.69;4974928;28;103323;-65
2022/03/27 09:52:10;;;;;;;17.52;14.18;;;;;;;20.50;37.65;99797.91;4974982;28;102680;-65
2022/03/27 09:54:47;;;;;;;15.57;13.37;;;;;;;21.05;36.48;99796.91;4976460;28;104376;-64
2022/03/27 09:57:20;;;;;;;17.65;14.40;;;;;;;18.58;39.48;99802.38;4973291;28;103259;-64
2022/03/27 09:59:49;;;;;;;17.27;15.40;;;;;;;19.59;40.28;99801.19;4973035;28;104158;-64
2022/03/27 10:02:26;;;;;;;20.35;14.98;;;;;;;20.45;37.66;99790.31;4971999;28;102778;-62
2022/03/27 10:05:00;;;;;;;17.15;14.80;;;;;;;20.63;37.67;99790.38;4971760;28;103145;-62
2022/03/27 10:07:36;;;;;;;16.15;14.48;;;;;;;21.32;38.21;99791.53;4973326;28;103286;-65
2022/03/27 10:10:06;;;;;;;15.35;13.88;;;;;;;21.67;35.16;99789.84;4975369;28;103171;-64
2022/03/27 10:12:37;;;;;;;15.73;13.65;;;;;;;21.59;35.72;99792.44;4970154;28;102743;-64
2022/03/27 10:15:09;;;;;;;14.75;13.25;;;;;;;21.61;34.68;99787.78;4974164;28;102717;-64
2022/03/27 10:17:38;;;;;;;16.83;14.63;;;;;;;21.41;36.40;99783.56;4971293;28;104382;-64
2022/03/27 10:20:09;;;;;;;18.05;15.25;;;;;;;20.71;35.67;99782.41;4975200;28;103216;-64
2022/03/27 10:22:42;;;;;;;18.03;14.80;;;;;;;19.91;36.76;99780.25;4975144;28;102937;-64
2022/03/27 10:25:12;;;;;;;16.27;14.25;;;;;;;20.85;35.32;99776.56;4976704;28;102676;-65
2022/03/27 10:27:43;;;;;;;18.23;15.77;;;;;;;20.92;35.78;99769.56;4974577;28;104022;-65
2022/03/27 10:30:13;;;;;;;17.33;14.90;;;;;;;19.85;36.76;99775.47;4976436;28;103248;-64
2022/03/27 10:32:43;;;;;;;20.02;15.00;;;;;;;20.10;37.44;99768.63;4972859;28;102516;-62
2022/03/27 10:35:47;;;;;;;17.48;14.40;;;;;;;21.08;37.65;99767.09;4973746;28;102913;-63
2022/03/27 10:38:28;;;;;;;19.52;15.88;;;;;;;19.56;38.05;99758.56;4972597;28;103523;-63
2022/03/27 10:41:06;;;;;;;17.95;15.18;;;;;;;20.87;38.60;99755.75;4974127;28;103231;-65
2022/03/27 10:43:43;;;;;;;20.10;15.85;;;;;;;18.66;39.35;99759.72;4971006;28;103034;-65
2022/03/27 10:46:16;;;;;;;18.50;16.20;;;;;;;19.30;40.12;99752.06;4973601;28;103459;-65
2022/03/27 10:48:45;;;;;;;18.38;15.88;;;;;;;20.10;37.88;99747.16;4974202;28;103408;-65
2022/03/27 10:51:38;;;;;;;22.70;16.33;;;;;;;18.93;40.17;99750.03;4973617;28;103331;-65
2022/03/27 10:54:10;;;;;;;22.60;17.15;;;;;;;18.43;40.23;99762.56;4972271;28;102637;-65
2022/03/27 10:56:41;;;;;;;16.25;14.00;;;;;;;20.05;38.05;99742.25;4974655;28;103849;-63
2022/03/27 10:59:11;;;;;;;18.58;16.05;;;;;;;18.85;39.46;99749.03;4974006;28;104068;-62
2022/03/27 11:01:43;;;;;;;15.80;14.13;;;;;;;20.74;38.41;99737.28;4973718;28;103204;-62
2022/03/27 11:04:13;;;;;;;18.40;16.20;;;;;;;19.50;37.53;99735.88;4972295;28;102831;-62
2022/03/27 11:06:43;;;;;;;19.23;16.00;;;;;;;19.78;38.09;99741.31;4972137;28;103235;-64
2022/03/27 11:09:31;;;;;;;20.02;16.65;;;;;;;19.22;39.15;99730.47;4971622;28;103843;-64
2022/03/27 11:12:00;;;;;;;18.97;15.00;;;;;;;21.09;37.63;99716.88;4970412;28;103207;-64
2022/03/27 11:15:07;;;;;;;20.00;15.43;;;;;;;19.82;38.05;99727.47;4971471;28;103048;-62
2022/03/27 11:17:47;;;;;;;16.45;14.38;;;;;;;20.12;37.48;99724.59;4972047;28;104169;-62
2022/03/27 11:20:57;;;;;;;17.93;15.63;;;;;;;20.10;37.15;99726.53;4974191;28;103783;-64
2022/03/27 11:23:27;;;;;;;20.33;15.65;;;;;;;20.52;37.48;99713.53;4974052;28;103886;-64
2022/03/27 11:25:57;;;;;;;17.27;14.77;;;;;;;21.99;35.66;99706.72;4971602;28;102901;-65
2022/03/27 11:28:26;;;;;;;16.33;14.70;;;;;;;22.61;34.50;99707.34;4974283;28;102839;-65
2022/03/27 11:31:21;;;;;;;14.65;13.27;;;;;;;22.20;35.36;99700.97;4970269;28;103823;-64
2022/03/27 11:34:20;;;;;;;16.90;14.75;;;;;;;22.59;35.06;99695.91;4973413;28;104207;-63
2022/03/27 11:37:25;;;;;;;18.23;13.87;;;;;;;22.42;33.24;99690.47;4971573;28;102836;-63
2022/03/27 11:39:55;;;;;;;15.52;13.93;;;;;;;22.92;32.96;99693.16;4970727;28;104331;-62